TAF KPUW
KPUW 072337Z 0800/0824 10007KT 3SM -SHRA BR OVC012 TEMPO 0800/0804 1 1/2SM BR FM080400 18005KT 5SM -RA BR OVC015 FM081000 21010KT P6SM -RA OVC020 WS020/23038KT FM081500 24016G26KT P6SM -SHRA SCT020 BKN050 FM081900 25020G30KT 6SM -SHSN BKN030=
METAR KPUW
WC KPUW
WS KPUW
WV KPUW